Time;durP1;ratioP1;P1;durP2;ratioP2;P2;SDS_P1;SDS_P2;PMS_P1;PMS_P2;Temp;Humidity;BMP_temperature;BMP_pressure;BME280_temperature;BME280_humidity;BME280_pressure;Samples;Min_cycle;Max_cycle;Signal;HPM_P1;HPM_P2
2021/12/22 00:00:55;;;;;;;30.47;15.67;;;;;;;;;;5106369;28;20442;-73
2021/12/22 00:03:24;;;;;;;31.87;15.87;;;;;;;;;;5100118;28;20440;-73
2021/12/22 00:05:53;;;;;;;32.40;17.07;;;;;;;;;;5096794;28;20448;-73
2021/12/22 00:08:22;;;;;;;33.00;17.00;;;;;;;;;;5100268;28;20483;-73
2021/12/22 00:10:50;;;;;;;33.13;16.83;;;;;;;;;;5111779;28;20439;-73
2021/12/22 00:13:18;;;;;;;29.30;16.33;;;;;;;;;;5100852;28;20528;-73
2021/12/22 00:15:45;;;;;;;28.93;16.60;;;;;;;;;;5100735;28;20853;-74
2021/12/22 00:18:13;;;;;;;29.83;16.67;;;;;;;;;;5100067;28;20467;-73
2021/12/22 00:20:41;;;;;;;34.33;16.30;;;;;;;;;;5100538;28;20928;-73
2021/12/22 00:23:10;;;;;;;41.63;16.13;;;;;;;;;;5100359;28;20431;-73
2021/12/22 00:25:38;;;;;;;35.17;16.67;;;;;;;;;;5100416;28;20448;-73
2021/12/22 00:28:05;;;;;;;30.60;16.23;;;;;;;;;;5100054;28;20990;-73
2021/12/22 00:30:35;;;;;;;29.70;15.43;;;;;;;;;;5100446;28;20807;-73
2021/12/22 00:33:05;;;;;;;32.83;16.00;;;;;;;;;;5099888;28;20451;-73
2021/12/22 00:35:40;;;;;;;36.53;16.50;;;;;;;;;;5099868;28;20483;-73
2021/12/22 00:38:08;;;;;;;25.93;14.60;;;;;;;;;;5100501;28;20829;-73
2021/12/22 00:40:37;;;;;;;33.83;17.20;;;;;;;;;;5100404;28;20443;-73
2021/12/22 00:43:05;;;;;;;33.47;17.43;;;;;;;;;;5099967;28;20444;-73
2021/12/22 00:45:35;;;;;;;29.87;15.97;;;;;;;;;;5100202;28;20446;-73
2021/12/22 00:48:03;;;;;;;32.30;17.03;;;;;;;;;;5099896;28;20839;-73
2021/12/22 00:50:31;;;;;;;33.63;17.03;;;;;;;;;;5099958;28;20439;-74
2021/12/22 00:52:59;;;;;;;32.10;16.77;;;;;;;;;;5100279;28;20492;-73
2021/12/22 00:55:27;;;;;;;31.93;16.47;;;;;;;;;;5100003;28;20536;-74
2021/12/22 00:57:56;;;;;;;28.87;15.97;;;;;;;;;;5099877;28;20444;-73
2021/12/22 01:00:25;;;;;;;34.17;17.83;;;;;;;;;;5099696;28;20444;-74
2021/12/22 01:02:53;;;;;;;37.47;16.77;;;;;;;;;;5089481;28;20774;-73
2021/12/22 01:05:21;;;;;;;31.80;17.03;;;;;;;;;;5099633;28;20923;-74
2021/12/22 01:07:50;;;;;;;32.73;17.60;;;;;;;;;;5099313;28;20471;-74
2021/12/22 01:10:19;;;;;;;35.53;17.63;;;;;;;;;;5099263;28;20444;-73
2021/12/22 01:12:47;;;;;;;34.17;17.20;;;;;;;;;;5099695;28;20440;-73
2021/12/22 01:15:16;;;;;;;32.43;16.97;;;;;;;;;;5099632;28;20902;-74
2021/12/22 01:17:48;;;;;;;29.17;16.17;;;;;;;;;;5106920;28;20443;-74
2021/12/22 01:20:21;;;;;;;28.53;15.23;;;;;;;;;;5098133;28;20873;-74
2021/12/22 01:22:50;;;;;;;30.83;15.70;;;;;;;;;;5099208;28;20872;-74
2021/12/22 01:25:21;;;;;;;32.17;17.40;;;;;;;;;;5094781;28;20445;-73
2021/12/22 01:27:50;;;;;;;34.93;16.00;;;;;;;;;;5099160;28;20476;-73
2021/12/22 01:30:20;;;;;;;30.37;15.87;;;;;;;;;;5097072;28;20498;-70
2021/12/22 01:32:48;;;;;;;31.53;16.33;;;;;;;;;;5098892;28;20501;-74
2021/12/22 01:35:17;;;;;;;29.57;17.67;;;;;;;;;;5099051;28;20986;-74
2021/12/22 01:37:45;;;;;;;33.50;16.10;;;;;;;;;;5098060;28;20455;-74
2021/12/22 01:40:14;;;;;;;31.57;17.17;;;;;;;;;;5097636;28;20939;-74
2021/12/22 01:42:42;;;;;;;34.40;17.17;;;;;;;;;;5099088;28;20440;-74
2021/12/22 01:45:26;;;;;;;33.53;16.73;;;;;;;;;;5098197;28;20459;-74
2021/12/22 01:50:41;;;;;;;31.40;17.97;;;;;;;;;;5097512;28;20473;-74
2021/12/22 01:53:31;;;;;;;31.80;16.97;;;;;;;;;;5099125;28;20930;-74
2021/12/22 01:56:07;;;;;;;30.03;17.37;;;;;;;;;;5085712;28;20483;-74
2021/12/22 01:58:36;;;;;;;33.43;17.20;;;;;;;;;;5097987;28;20875;-76
2021/12/22 02:01:05;;;;;;;37.80;18.40;;;;;;;;;;5098891;28;20440;-74
2021/12/22 02:03:34;;;;;;;25.97;15.50;;;;;;;;;;5096031;28;20462;-75
2021/12/22 02:06:04;;;;;;;34.80;17.57;;;;;;;;;;5097404;28;20487;-75
2021/12/22 02:08:32;;;;;;;28.57;15.33;;;;;;;;;;5098614;28;20950;-74
2021/12/22 02:11:00;;;;;;;30.43;16.57;;;;;;;;;;5097631;28;20464;-74
2021/12/22 02:13:29;;;;;;;28.23;15.40;;;;;;;;;;5098540;28;20443;-75
2021/12/22 02:16:05;;;;;;;35.93;17.63;;;;;;;;;;5098082;28;20522;-74
2021/12/22 02:18:34;;;;;;;32.20;17.57;;;;;;;;;;5098135;28;20528;-75
2021/12/22 02:21:04;;;;;;;32.73;17.70;;;;;;;;;;5096946;28;20460;-74
2021/12/22 02:23:31;;;;;;;35.17;17.27;;;;;;;;;;5098385;28;20436;-73
2021/12/22 02:26:06;;;;;;;30.63;16.60;;;;;;;;;;5096826;28;20872;-74
2021/12/22 02:28:36;;;;;;;34.60;17.27;;;;;;;;;;5095558;28;20532;-73
2021/12/22 02:31:04;;;;;;;33.90;16.40;;;;;;;;;;5098042;28;20766;-74
2021/12/22 02:33:36;;;;;;;29.50;14.70;;;;;;;;;;5096643;28;21009;-75
2021/12/22 02:36:09;;;;;;;36.37;17.77;;;;;;;;;;5097646;28;21055;-73
2021/12/22 02:38:38;;;;;;;34.27;17.70;;;;;;;;;;5097204;28;20475;-73
2021/12/22 02:41:08;;;;;;;33.57;17.53;;;;;;;;;;5097702;28;20478;-74
2021/12/22 02:43:44;;;;;;;31.20;18.03;;;;;;;;;;5096733;28;20451;-74
2021/12/22 02:46:11;;;;;;;37.70;19.27;;;;;;;;;;5096911;28;20450;-74
2021/12/22 02:48:39;;;;;;;36.97;20.57;;;;;;;;;;5097470;28;20466;-74
2021/12/22 02:51:09;;;;;;;866.70;369.60;;;;;;;;;;5097914;28;20470;-69
2021/12/22 02:53:44;;;;;;;49.20;27.67;;;;;;;;;;5104182;28;20832;-69
2021/12/22 02:56:27;;;;;;;46.27;23.97;;;;;;;;;;5097735;28;20518;-72
2021/12/22 02:59:02;;;;;;;47.63;24.47;;;;;;;;;;5097869;28;20990;-71
2021/12/22 03:02:05;;;;;;;43.37;24.20;;;;;;;;;;5099771;28;20446;-72
2021/12/22 03:04:34;;;;;;;43.07;22.17;;;;;;;;;;5095856;28;20510;-72
2021/12/22 03:07:09;;;;;;;41.30;20.60;;;;;;;;;;5103228;28;20992;-72
2021/12/22 03:09:37;;;;;;;38.90;22.27;;;;;;;;;;5097990;28;20513;-72
2021/12/22 03:12:06;;;;;;;43.10;21.43;;;;;;;;;;5096714;28;20494;-74
2021/12/22 03:14:33;;;;;;;41.73;22.03;;;;;;;;;;5097025;28;20443;-72
2021/12/22 03:17:01;;;;;;;42.80;22.47;;;;;;;;;;5096938;28;20452;-72
2021/12/22 03:19:30;;;;;;;32.80;18.10;;;;;;;;;;5096548;28;20841;-72
2021/12/22 03:22:02;;;;;;;39.53;19.93;;;;;;;;;;5096815;28;20855;-72
2021/12/22 03:24:33;;;;;;;35.43;20.10;;;;;;;;;;5107022;28;20447;-72
2021/12/22 03:27:03;;;;;;;39.50;19.87;;;;;;;;;;5096893;28;20988;-72
2021/12/22 03:29:31;;;;;;;34.33;18.60;;;;;;;;;;5096812;28;20499;-72
2021/12/22 03:31:59;;;;;;;35.57;18.77;;;;;;;;;;5096543;28;20529;-72
2021/12/22 03:34:27;;;;;;;34.47;18.57;;;;;;;;;;5096826;28;20450;-72
2021/12/22 03:36:58;;;;;;;32.90;18.87;;;;;;;;;;5097325;28;20507;-72
2021/12/22 03:39:27;;;;;;;38.63;18.67;;;;;;;;;;5097471;28;20466;-72
2021/12/22 03:41:57;;;;;;;31.13;16.20;;;;;;;;;;5097384;28;20439;-72
2021/12/22 03:44:25;;;;;;;33.27;16.73;;;;;;;;;;5100333;28;20449;-72
2021/12/22 03:46:52;;;;;;;33.57;16.73;;;;;;;;;;5101366;28;20447;-72
2021/12/22 03:49:20;;;;;;;32.10;17.17;;;;;;;;;;5101109;28;20459;-72
2021/12/22 03:51:48;;;;;;;32.97;18.13;;;;;;;;;;5101281;28;20475;-73
2021/12/22 03:54:16;;;;;;;31.93;18.57;;;;;;;;;;5101280;28;20439;-72
2021/12/22 03:56:44;;;;;;;36.70;18.37;;;;;;;;;;5101229;28;20491;-72
2021/12/22 03:59:13;;;;;;;28.40;17.13;;;;;;;;;;5101165;28;20502;-73
2021/12/22 04:01:41;;;;;;;32.93;17.53;;;;;;;;;;5103325;28;20447;-72
2021/12/22 04:04:13;;;;;;;33.73;18.87;;;;;;;;;;5111639;27;20467;-72
2021/12/22 04:06:42;;;;;;;36.37;16.63;;;;;;;;;;5100678;28;20475;-72
2021/12/22 04:09:10;;;;;;;35.80;18.10;;;;;;;;;;5100699;28;20455;-72
2021/12/22 04:11:38;;;;;;;33.37;17.70;;;;;;;;;;5100902;28;20455;-72
2021/12/22 04:14:05;;;;;;;34.13;18.27;;;;;;;;;;5100527;28;20518;-72
2021/12/22 04:16:35;;;;;;;31.13;17.60;;;;;;;;;;5100253;28;20483;-72
2021/12/22 04:19:03;;;;;;;38.63;18.90;;;;;;;;;;5100417;28;20503;-72
2021/12/22 04:21:31;;;;;;;35.10;17.40;;;;;;;;;;5100678;28;20448;-72
2021/12/22 04:24:00;;;;;;;28.97;15.87;;;;;;;;;;5100712;28;20505;-72
2021/12/22 04:26:31;;;;;;;34.20;18.47;;;;;;;;;;5100557;28;20448;-72
2021/12/22 04:28:59;;;;;;;37.00;18.73;;;;;;;;;;5100103;28;20494;-72
2021/12/22 04:31:27;;;;;;;35.13;17.97;;;;;;;;;;5100519;28;20805;-72
2021/12/22 04:33:56;;;;;;;39.03;17.45;;;;;;;;;;5099772;28;20450;-72
2021/12/22 04:36:24;;;;;;;36.10;17.73;;;;;;;;;;5100340;28;20708;-72
2021/12/22 04:38:53;;;;;;;35.17;18.30;;;;;;;;;;5100043;28;20887;-72
2021/12/22 04:41:20;;;;;;;44.65;18.63;;;;;;;;;;5100242;28;20634;-72
2021/12/22 04:43:48;;;;;;;40.10;20.10;;;;;;;;;;5099913;28;20198;-72
2021/12/22 04:46:16;;;;;;;36.40;19.43;;;;;;;;;;5100261;28;20478;-72
2021/12/22 04:48:46;;;;;;;36.97;18.57;;;;;;;;;;5099670;28;20468;-71
2021/12/22 04:51:24;;;;;;;40.87;18.90;;;;;;;;;;5099773;28;20513;-72
2021/12/22 04:53:57;;;;;;;34.60;17.17;;;;;;;;;;5099867;28;20443;-72
2021/12/22 04:56:25;;;;;;;42.50;19.30;;;;;;;;;;5099836;28;20597;-72
2021/12/22 04:58:52;;;;;;;31.87;16.40;;;;;;;;;;5099768;28;20459;-72
2021/12/22 05:01:20;;;;;;;38.07;17.23;;;;;;;;;;5099942;28;20501;-72
2021/12/22 05:03:48;;;;;;;35.13;17.63;;;;;;;;;;5113463;28;20927;-72
2021/12/22 05:06:17;;;;;;;42.00;16.27;;;;;;;;;;5099479;28;20501;-72
2021/12/22 05:08:45;;;;;;;36.60;17.07;;;;;;;;;;5099494;28;20486;-72
2021/12/22 05:11:12;;;;;;;30.57;15.57;;;;;;;;;;5099902;28;20532;-72
2021/12/22 05:13:40;;;;;;;34.15;16.52;;;;;;;;;;5099721;28;20538;-72
2021/12/22 05:16:15;;;;;;;33.53;16.50;;;;;;;;;;5098634;28;20225;-72
2021/12/22 05:18:52;;;;;;;32.73;15.83;;;;;;;;;;5092949;28;20830;-72
2021/12/22 05:21:22;;;;;;;29.50;14.27;;;;;;;;;;5093418;28;20450;-72
2021/12/22 05:23:50;;;;;;;38.03;18.23;;;;;;;;;;5099481;28;20462;-72
2021/12/22 05:26:18;;;;;;;39.00;17.60;;;;;;;;;;5099341;28;20472;-72
2021/12/22 05:28:46;;;;;;;36.67;15.93;;;;;;;;;;5097265;28;20499;-72
2021/12/22 05:31:14;;;;;;;29.97;16.33;;;;;;;;;;5098162;28;20863;-73
2021/12/22 05:33:42;;;;;;;28.83;14.47;;;;;;;;;;5097719;28;20439;-72
2021/12/22 05:36:09;;;;;;;34.83;15.20;;;;;;;;;;5086067;28;20561;-72
2021/12/22 05:38:39;;;;;;;32.97;15.07;;;;;;;;;;5098696;28;20474;-72
2021/12/22 05:41:06;;;;;;;31.43;16.30;;;;;;;;;;5099103;28;20478;-72
2021/12/22 05:43:34;;;;;;;36.75;16.73;;;;;;;;;;5099038;28;20486;-72
2021/12/22 05:46:02;;;;;;;31.87;16.20;;;;;;;;;;5098613;28;20233;-70
2021/12/22 05:48:30;;;;;;;35.83;16.85;;;;;;;;;;5098701;28;20490;-71
2021/12/22 05:50:59;;;;;;;34.77;16.20;;;;;;;;;;5098803;28;20214;-71
2021/12/22 05:53:27;;;;;;;33.67;15.87;;;;;;;;;;5098662;28;20443;-71
2021/12/22 05:55:56;;;;;;;31.70;15.87;;;;;;;;;;5098959;28;20798;-71
2021/12/22 05:58:27;;;;;;;30.33;15.33;;;;;;;;;;5098693;28;20463;-70
2021/12/22 06:00:55;;;;;;;28.40;14.50;;;;;;;;;;5099982;28;20543;-70
2021/12/22 06:03:23;;;;;;;32.20;15.73;;;;;;;;;;5092801;28;20887;-71
2021/12/22 06:05:50;;;;;;;32.77;17.10;;;;;;;;;;5097654;28;20444;-70
2021/12/22 06:08:18;;;;;;;32.70;15.90;;;;;;;;;;5098424;28;20464;-71
2021/12/22 06:10:46;;;;;;;36.10;15.40;;;;;;;;;;5098243;28;20480;-71
2021/12/22 06:13:15;;;;;;;33.33;15.70;;;;;;;;;;5098413;28;20878;-71
2021/12/22 06:15:43;;;;;;;36.13;15.43;;;;;;;;;;5099370;28;20809;-71
2021/12/22 06:18:10;;;;;;;28.93;16.37;;;;;;;;;;5097737;28;20483;-71
2021/12/22 06:20:38;;;;;;;31.87;15.57;;;;;;;;;;5111727;28;20444;-71
2021/12/22 06:23:06;;;;;;;31.07;14.70;;;;;;;;;;5098413;28;20451;-71
2021/12/22 06:25:35;;;;;;;29.57;15.13;;;;;;;;;;5098296;28;20447;-71
2021/12/22 06:28:03;;;;;;;27.80;15.07;;;;;;;;;;5098018;28;20516;-71
2021/12/22 06:30:33;;;;;;;32.17;15.67;;;;;;;;;;5098644;28;20447;-71
2021/12/22 06:33:01;;;;;;;34.93;15.60;;;;;;;;;;5085582;28;20478;-71
2021/12/22 06:35:28;;;;;;;29.30;15.37;;;;;;;;;;5097844;28;20431;-73
2021/12/22 06:37:56;;;;;;;31.50;15.40;;;;;;;;;;5096404;28;20532;-64
2021/12/22 06:40:24;;;;;;;31.00;14.90;;;;;;;;;;5097772;28;20500;-66
2021/12/22 06:42:51;;;;;;;32.87;16.20;;;;;;;;;;5097990;28;20950;-64
2021/12/22 06:45:21;;;;;;;38.57;17.53;;;;;;;;;;5096345;28;20490;-64
2021/12/22 06:47:50;;;;;;;38.33;16.60;;;;;;;;;;5097216;28;20443;-65
2021/12/22 06:50:18;;;;;;;33.80;16.70;;;;;;;;;;5094091;28;20443;-70
2021/12/22 06:52:45;;;;;;;29.27;17.07;;;;;;;;;;5097042;28;20500;-70
2021/12/22 06:55:13;;;;;;;33.70;16.77;;;;;;;;;;5097131;28;20443;-70
2021/12/22 06:57:41;;;;;;;34.83;16.67;;;;;;;;;;5097147;28;20560;-71
2021/12/22 07:00:10;;;;;;;38.88;17.45;;;;;;;;;;5093645;28;20531;-70
2021/12/22 07:02:38;;;;;;;34.22;18.27;;;;;;;;;;5096733;28;20232;-72
2021/12/22 07:05:09;;;;;;;29.90;15.23;;;;;;;;;;5093188;28;20213;-71
2021/12/22 07:07:37;;;;;;;40.10;18.23;;;;;;;;;;5092971;28;20505;-71
2021/12/22 07:10:07;;;;;;;37.50;16.90;;;;;;;;;;5096758;28;20492;-71
2021/12/22 07:12:34;;;;;;;31.70;14.27;;;;;;;;;;5096868;28;20443;-71
2021/12/22 07:15:03;;;;;;;39.83;16.77;;;;;;;;;;5096809;28;20443;-71
2021/12/22 07:17:30;;;;;;;44.10;17.07;;;;;;;;;;5096769;28;20576;-71
2021/12/22 07:19:58;;;;;;;35.70;16.10;;;;;;;;;;5100874;28;20472;-71
2021/12/22 07:22:27;;;;;;;34.50;17.27;;;;;;;;;;5095911;28;20515;-72
2021/12/22 07:24:55;;;;;;;29.90;14.57;;;;;;;;;;5095873;28;20443;-71
2021/12/22 07:27:24;;;;;;;33.33;16.00;;;;;;;;;;5092470;28;20815;-71
2021/12/22 07:29:52;;;;;;;45.37;18.67;;;;;;;;;;5092598;28;20460;-72
2021/12/22 07:32:20;;;;;;;41.07;17.10;;;;;;;;;;5101161;28;20483;-71
2021/12/22 07:34:48;;;;;;;36.67;16.77;;;;;;;;;;5097206;28;20576;-71
2021/12/22 07:37:19;;;;;;;39.73;18.70;;;;;;;;;;5092294;28;20883;-72
2021/12/22 07:39:48;;;;;;;38.97;18.93;;;;;;;;;;5097688;28;20524;-72
2021/12/22 07:42:16;;;;;;;38.90;17.03;;;;;;;;;;5092082;28;20482;-72
2021/12/22 07:44:44;;;;;;;36.87;18.77;;;;;;;;;;5093197;28;20440;-73
2021/12/22 07:47:11;;;;;;;38.77;18.77;;;;;;;;;;5099237;28;20455;-73
2021/12/22 07:49:39;;;;;;;40.80;17.43;;;;;;;;;;5090418;28;20870;-73
2021/12/22 07:52:07;;;;;;;39.27;18.37;;;;;;;;;;5098722;28;20473;-73
2021/12/22 07:54:35;;;;;;;41.80;17.57;;;;;;;;;;5095920;28;20463;-75
2021/12/22 07:57:04;;;;;;;32.20;16.80;;;;;;;;;;5097286;28;20436;-75
2021/12/22 07:59:32;;;;;;;39.37;16.93;;;;;;;;;;5098892;28;20988;-75
2021/12/22 08:02:00;;;;;;;32.60;15.93;;;;;;;;;;5099187;28;20846;-74
2021/12/22 08:04:28;;;;;;;40.77;18.20;;;;;;;;;;5096552;28;20440;-74
2021/12/22 08:06:56;;;;;;;32.83;15.87;;;;;;;;;;5097104;28;20548;-74
2021/12/22 08:09:26;;;;;;;47.63;18.57;;;;;;;;;;5099858;28;20463;-73
2021/12/22 08:11:54;;;;;;;38.97;18.30;;;;;;;;;;5100072;28;20439;-73
2021/12/22 08:14:24;;;;;;;38.83;18.20;;;;;;;;;;5100034;28;20448;-73
2021/12/22 08:16:52;;;;;;;52.77;19.73;;;;;;;;;;5100155;28;20497;-72
2021/12/22 08:19:20;;;;;;;41.67;17.43;;;;;;;;;;5099356;28;20487;-74
2021/12/22 08:21:48;;;;;;;41.63;16.83;;;;;;;;;;5099537;28;20504;-73
2021/12/22 08:24:16;;;;;;;53.37;21.40;;;;;;;;;;5091619;28;20886;-73
2021/12/22 08:26:43;;;;;;;50.60;20.13;;;;;;;;;;5091550;28;20464;-73
2021/12/22 08:29:11;;;;;;;43.17;19.43;;;;;;;;;;5089049;28;20475;-73
2021/12/22 08:31:40;;;;;;;38.50;17.63;;;;;;;;;;5099125;28;20451;-73
2021/12/22 08:34:10;;;;;;;44.90;19.53;;;;;;;;;;5099143;28;20444;-73
2021/12/22 08:39:26;;;;;;;47.23;19.97;;;;;;;;;;5097159;28;20974;-73
2021/12/22 08:41:54;;;;;;;43.03;18.57;;;;;;;;;;5099729;28;20439;-73
2021/12/22 08:44:22;;;;;;;49.87;20.30;;;;;;;;;;5095821;28;20471;-73
2021/12/22 08:46:52;;;;;;;45.57;19.57;;;;;;;;;;5095215;28;20549;-73
2021/12/22 08:49:21;;;;;;;46.30;20.20;;;;;;;;;;5090917;28;20492;-73
2021/12/22 08:51:48;;;;;;;50.13;19.13;;;;;;;;;;5099611;28;20497;-73
2021/12/22 08:54:16;;;;;;;45.00;18.83;;;;;;;;;;5096527;28;20440;-73
2021/12/22 08:56:44;;;;;;;37.93;18.20;;;;;;;;;;5095078;28;20447;-73
2021/12/22 08:59:12;;;;;;;45.80;20.37;;;;;;;;;;5095422;28;20517;-73
2021/12/22 09:01:40;;;;;;;49.07;19.53;;;;;;;;;;5097483;28;20479;-73
2021/12/22 09:04:10;;;;;;;43.93;19.00;;;;;;;;;;5098284;28;20516;-73
2021/12/22 09:06:38;;;;;;;54.00;19.73;;;;;;;;;;5098775;28;20478;-73
2021/12/22 09:09:06;;;;;;;46.40;19.07;;;;;;;;;;5097726;28;20460;-73
2021/12/22 09:11:35;;;;;;;54.90;18.30;;;;;;;;;;5099180;28;20922;-73
2021/12/22 09:14:05;;;;;;;58.73;21.47;;;;;;;;;;5098676;28;20447;-73
2021/12/22 09:16:34;;;;;;;44.00;21.93;;;;;;;;;;5098331;28;20448;-73
2021/12/22 09:19:02;;;;;;;57.33;22.90;;;;;;;;;;5089774;28;20487;-73
2021/12/22 09:21:32;;;;;;;39.83;18.73;;;;;;;;;;5091702;28;20467;-73
2021/12/22 09:24:00;;;;;;;55.87;21.27;;;;;;;;;;5098254;28;20463;-73
2021/12/22 09:26:28;;;;;;;56.37;22.90;;;;;;;;;;5094639;28;20447;-73
2021/12/22 09:28:56;;;;;;;52.20;20.40;;;;;;;;;;5091155;28;20490;-74
2021/12/22 09:31:24;;;;;;;45.20;20.63;;;;;;;;;;5097818;28;20443;-74
2021/12/22 09:33:52;;;;;;;54.70;20.97;;;;;;;;;;5096612;28;20440;-74
2021/12/22 09:36:20;;;;;;;48.80;21.00;;;;;;;;;;5097199;28;20432;-74
2021/12/22 09:38:49;;;;;;;43.00;20.50;;;;;;;;;;5096393;28;20527;-74
2021/12/22 09:41:17;;;;;;;41.87;18.70;;;;;;;;;;5096502;28;20781;-74
2021/12/22 09:43:44;;;;;;;51.77;20.33;;;;;;;;;;5097079;28;20452;-74
2021/12/22 09:46:16;;;;;;;52.00;21.37;;;;;;;;;;5097865;28;20444;-74
2021/12/22 09:48:51;;;;;;;60.60;23.50;;;;;;;;;;5097437;28;20823;-74
2021/12/22 09:54:08;;;;;;;49.97;22.40;;;;;;;;;;5097474;28;20504;-73
2021/12/22 09:56:39;;;;;;;52.07;23.33;;;;;;;;;;5093670;28;20448;-74
2021/12/22 09:59:07;;;;;;;65.50;23.57;;;;;;;;;;5097278;28;20479;-74
2021/12/22 10:01:36;;;;;;;60.40;24.63;;;;;;;;;;5084934;28;20433;-74
2021/12/22 10:04:04;;;;;;;54.37;24.03;;;;;;;;;;5088957;28;20539;-74
2021/12/22 10:06:32;;;;;;;53.50;21.23;;;;;;;;;;5093788;28;20471;-74
2021/12/22 10:09:01;;;;;;;66.27;24.07;;;;;;;;;;5095814;28;20464;-74
2021/12/22 10:11:32;;;;;;;49.17;21.70;;;;;;;;;;5096957;28;20467;-69
2021/12/22 10:13:59;;;;;;;47.10;21.13;;;;;;;;;;5097576;28;20471;-69
2021/12/22 10:16:28;;;;;;;57.23;25.47;;;;;;;;;;5098017;28;20473;-69
2021/12/22 10:19:04;;;;;;;50.17;21.80;;;;;;;;;;5096883;28;20479;-69
2021/12/22 10:21:33;;;;;;;46.60;21.20;;;;;;;;;;5097820;28;20798;-74
2021/12/22 10:24:03;;;;;;;59.30;23.60;;;;;;;;;;5095355;28;20486;-74
2021/12/22 10:26:32;;;;;;;56.70;23.17;;;;;;;;;;5096879;28;20866;-74
2021/12/22 10:29:04;;;;;;;54.53;22.97;;;;;;;;;;5096723;28;20472;-74
2021/12/22 10:31:36;;;;;;;47.13;20.93;;;;;;;;;;5097724;28;20448;-72
2021/12/22 10:34:05;;;;;;;52.73;22.83;;;;;;;;;;5097086;28;20439;-73
2021/12/22 10:36:43;;;;;;;53.50;22.60;;;;;;;;;;5097541;28;21010;-74
2021/12/22 10:39:18;;;;;;;63.40;25.60;;;;;;;;;;5095758;28;20490;-72
2021/12/22 10:41:47;;;;;;;65.10;25.17;;;;;;;;;;5097369;28;20843;-74
2021/12/22 10:44:17;;;;;;;58.43;25.73;;;;;;;;;;5097033;28;20455;-73
2021/12/22 10:46:46;;;;;;;62.77;24.23;;;;;;;;;;5097627;28;20946;-72
2021/12/22 10:49:15;;;;;;;51.47;23.40;;;;;;;;;;5096765;28;20509;-70
2021/12/22 10:51:44;;;;;;;67.10;25.70;;;;;;;;;;5093426;28;20446;-70
2021/12/22 10:54:12;;;;;;;61.43;25.67;;;;;;;;;;5096800;28;20455;-74
2021/12/22 10:56:42;;;;;;;74.43;28.20;;;;;;;;;;5094803;28;20440;-72
2021/12/22 10:59:12;;;;;;;56.50;26.53;;;;;;;;;;5096661;28;20515;-74
2021/12/22 11:01:41;;;;;;;75.50;28.57;;;;;;;;;;5095048;28;20493;-73
2021/12/22 11:04:17;;;;;;;66.13;27.53;;;;;;;;;;5094406;28;21164;-69
2021/12/22 11:06:48;;;;;;;60.83;26.00;;;;;;;;;;5091049;28;20540;-64
2021/12/22 11:09:16;;;;;;;60.77;25.67;;;;;;;;;;5093539;28;20943;-71
2021/12/22 11:11:46;;;;;;;60.13;26.30;;;;;;;;;;5095485;28;20451;-71
2021/12/22 11:14:17;;;;;;;67.10;25.93;;;;;;;;;;5096755;28;20475;-71
2021/12/22 11:16:52;;;;;;;56.57;26.43;;;;;;;;;;5090344;28;20777;-72
2021/12/22 11:19:21;;;;;;;65.40;29.13;;;;;;;;;;5096318;28;20489;-71
2021/12/22 11:22:02;;;;;;;62.87;28.07;;;;;;;;;;5097129;28;20439;-72
2021/12/22 11:24:31;;;;;;;66.07;27.33;;;;;;;;;;5095750;28;20505;-72
2021/12/22 11:26:59;;;;;;;65.63;27.87;;;;;;;;;;5097009;28;20950;-71
2021/12/22 11:29:28;;;;;;;63.03;26.80;;;;;;;;;;5096447;28;20459;-71
2021/12/22 11:31:56;;;;;;;46.27;23.70;;;;;;;;;;5096655;28;20451;-72
2021/12/22 11:34:27;;;;;;;56.50;24.17;;;;;;;;;;5096276;28;20822;-72
2021/12/22 11:36:57;;;;;;;55.40;26.87;;;;;;;;;;5096792;28;20427;-71
2021/12/22 11:39:25;;;;;;;62.20;27.27;;;;;;;;;;5096559;28;20985;-71
2021/12/22 11:41:57;;;;;;;56.27;26.07;;;;;;;;;;5090017;28;20940;-71
2021/12/22 11:44:25;;;;;;;57.10;25.70;;;;;;;;;;5095866;28;20448;-71
2021/12/22 11:46:56;;;;;;;59.97;25.40;;;;;;;;;;5088625;28;20482;-69
2021/12/22 11:49:24;;;;;;;55.67;26.20;;;;;;;;;;5086355;28;20525;-70
2021/12/22 11:51:51;;;;;;;58.57;26.33;;;;;;;;;;5088554;28;20440;-69
2021/12/22 11:54:25;;;;;;;59.23;27.00;;;;;;;;;;5096519;28;20443;-69
2021/12/22 11:56:54;;;;;;;52.40;24.77;;;;;;;;;;5093466;28;20475;-69
2021/12/22 11:59:30;;;;;;;57.60;26.33;;;;;;;;;;5093735;28;20475;-68
2021/12/22 12:02:22;;;;;;;50.33;22.90;;;;;;;;;;5093092;28;20439;-68
2021/12/22 12:04:52;;;;;;;54.17;25.70;;;;;;;;;;5094272;28;20443;-67
2021/12/22 12:07:48;;;;;;;60.70;25.10;;;;;;;;;;5094128;28;20513;-68
2021/12/22 12:10:31;;;;;;;51.00;22.63;;;;;;;;;;5053549;28;20653;-68
2021/12/22 12:13:04;;;;;;;48.30;24.13;;;;;;;;;;5100349;28;20454;-68
2021/12/22 12:15:58;;;;;;;57.60;25.33;;;;;;;;;;5100153;28;20501;-68
2021/12/22 12:21:50;;;;;;;49.30;23.33;;;;;;;;;;5055259;28;20508;-68
2021/12/22 12:24:34;;;;;;;45.83;23.07;;;;;;;;;;5092701;28;22022;-68
2021/12/22 12:27:04;;;;;;;45.30;23.83;;;;;;;;;;5095964;28;20824;-68
2021/12/22 12:29:49;;;;;;;51.23;24.27;;;;;;;;;;5097656;28;20463;-68
2021/12/22 12:32:32;;;;;;;45.80;21.53;;;;;;;;;;5106506;28;20442;-68
2021/12/22 12:35:15;;;;;;;46.40;22.47;;;;;;;;;;5106793;28;20443;-69
2021/12/22 12:38:00;;;;;;;45.73;20.93;;;;;;;;;;5100711;28;20455;-69
2021/12/22 12:40:43;;;;;;;49.83;23.90;;;;;;;;;;5092184;28;20815;-69
2021/12/22 12:43:11;;;;;;;49.07;21.57;;;;;;;;;;5052156;28;20934;-67
2021/12/22 12:45:43;;;;;;;42.80;21.53;;;;;;;;;;5100067;28;20460;-67
2021/12/22 12:48:33;;;;;;;36.17;19.67;;;;;;;;;;5102744;28;20471;-68
2021/12/22 12:51:13;;;;;;;38.83;20.40;;;;;;;;;;5096332;28;20451;-68
2021/12/22 12:53:43;;;;;;;38.37;19.93;;;;;;;;;;5103996;28;20447;-68
2021/12/22 12:56:12;;;;;;;39.80;19.40;;;;;;;;;;5102956;28;20448;-68
2021/12/22 12:58:51;;;;;;;41.80;20.33;;;;;;;;;;5092025;28;20463;-69
2021/12/22 13:01:19;;;;;;;46.57;19.77;;;;;;;;;;5094377;28;20474;-69
2021/12/22 13:03:47;;;;;;;40.13;20.90;;;;;;;;;;5098623;28;20443;-68
2021/12/22 13:06:15;;;;;;;38.10;20.43;;;;;;;;;;5093314;28;20468;-68
2021/12/22 13:08:46;;;;;;;43.57;21.13;;;;;;;;;;5090974;28;20464;-69
2021/12/22 13:11:14;;;;;;;43.83;20.47;;;;;;;;;;5096173;28;20475;-68
2021/12/22 13:15:46;;;;;;;42.27;20.97;;;;;;;;;;5099013;28;20428;-71
2021/12/22 13:16:41;;;;;;;47.20;22.23;;;;;;;;;;5098681;28;20443;-70
2021/12/22 13:19:12;;;;;;;45.40;22.60;;;;;;;;;;5098576;28;20858;-70
2021/12/22 13:21:41;;;;;;;46.03;20.13;;;;;;;;;;5098846;28;20482;-70
2021/12/22 13:24:18;;;;;;;38.93;19.30;;;;;;;;;;5098299;28;20447;-71
2021/12/22 13:26:48;;;;;;;46.07;21.43;;;;;;;;;;5095539;28;20470;-70
2021/12/22 13:29:15;;;;;;;38.53;18.47;;;;;;;;;;5098463;28;20486;-71
2021/12/22 13:31:43;;;;;;;43.70;20.27;;;;;;;;;;5094817;28;20451;-70
2021/12/22 13:34:11;;;;;;;47.90;20.33;;;;;;;;;;5098062;28;20489;-70
2021/12/22 13:36:39;;;;;;;36.33;19.13;;;;;;;;;;5098367;28;20439;-71
2021/12/22 13:39:06;;;;;;;38.93;20.30;;;;;;;;;;5098159;28;20483;-71
2021/12/22 13:41:37;;;;;;;41.10;19.37;;;;;;;;;;5098027;28;20545;-71
2021/12/22 13:44:06;;;;;;;40.97;20.70;;;;;;;;;;5098693;28;20529;-71
2021/12/22 13:46:35;;;;;;;43.77;21.67;;;;;;;;;;5101705;28;20467;-71
2021/12/22 13:49:04;;;;;;;39.37;20.77;;;;;;;;;;5104542;28;20458;-71
2021/12/22 13:51:35;;;;;;;37.63;20.43;;;;;;;;;;5100929;28;20519;-71
2021/12/22 13:54:07;;;;;;;40.90;20.43;;;;;;;;;;5099047;28;20475;-71
2021/12/22 13:56:35;;;;;;;41.57;20.00;;;;;;;;;;5091636;28;20436;-72
2021/12/22 13:59:05;;;;;;;35.77;18.43;;;;;;;;;;5098473;28;20458;-72
2021/12/22 14:01:38;;;;;;;39.80;20.83;;;;;;;;;;5098379;28;20472;-71
2021/12/22 14:04:08;;;;;;;46.87;20.87;;;;;;;;;;5097899;28;20431;-72
2021/12/22 14:06:36;;;;;;;37.97;21.23;;;;;;;;;;5091793;28;20498;-71
2021/12/22 14:09:07;;;;;;;42.40;20.90;;;;;;;;;;5105855;28;20456;-71
2021/12/22 14:11:58;;;;;;;37.63;18.97;;;;;;;;;;5100273;28;20465;-71
2021/12/22 14:14:32;;;;;;;46.10;21.40;;;;;;;;;;5098903;28;20478;-71
2021/12/22 14:17:09;;;;;;;41.40;20.73;;;;;;;;;;5097106;28;20443;-71
2021/12/22 14:19:38;;;;;;;42.43;22.30;;;;;;;;;;5097300;28;20500;-71
2021/12/22 14:22:06;;;;;;;43.17;22.73;;;;;;;;;;5102411;28;20522;-71
2021/12/22 14:24:34;;;;;;;42.73;20.80;;;;;;;;;;5098668;28;20847;-72
2021/12/22 14:27:03;;;;;;;49.67;21.13;;;;;;;;;;5104270;28;20448;-72
2021/12/22 14:29:33;;;;;;;44.60;21.93;;;;;;;;;;5100492;28;20507;-72
2021/12/22 14:32:02;;;;;;;40.63;20.93;;;;;;;;;;5104788;28;20471;-71
2021/12/22 14:34:30;;;;;;;46.23;22.73;;;;;;;;;;5099571;28;20857;-72
2021/12/22 14:36:58;;;;;;;43.90;22.63;;;;;;;;;;5104834;28;20435;-71
2021/12/22 14:39:39;;;;;;;45.43;22.03;;;;;;;;;;5104394;28;20451;-71
2021/12/22 14:42:20;;;;;;;42.87;21.37;;;;;;;;;;5106473;28;20474;-71
2021/12/22 14:44:50;;;;;;;40.40;22.07;;;;;;;;;;5104322;28;20436;-71